Time;durP1;ratioP1;P1;durP2;ratioP2;P2;SDS_P1;SDS_P2;PMS_P1;PMS_P2;Temp;Humidity;BMP_temperature;BMP_pressure;BME280_temperature;BME280_humidity;BME280_pressure;Samples;Min_cycle;Max_cycle;Signal;HPM_P1;HPM_P2
2024/04/10 00:00:16;;;;;;;7.72;4.75;;;;;;;14.68;56.58;99919.53;5439758;26;20000;-64
2024/04/10 00:02:42;;;;;;;8.45;5.65;;;;;;;14.70;56.41;99922.03;5436950;26;20006;-64
2024/04/10 00:05:09;;;;;;;7.20;5.40;;;;;;;14.68;57.28;99919.53;5439560;26;20121;-64
2024/04/10 00:07:35;;;;;;;6.50;4.82;;;;;;;14.73;57.44;99919.00;5435234;26;19999;-64
2024/04/10 00:10:02;;;;;;;7.55;4.50;;;;;;;14.51;57.14;99914.53;5423584;26;20007;-64
2024/04/10 00:12:28;;;;;;;7.95;4.95;;;;;;;14.49;56.70;99919.22;5422278;26;20057;-64
2024/04/10 00:14:54;;;;;;;6.93;4.72;;;;;;;14.39;57.32;99914.13;5423696;26;20007;-64
2024/04/10 00:17:20;;;;;;;9.00;5.30;;;;;;;14.28;57.63;99918.06;5422043;26;20399;-64
2024/04/10 00:19:53;;;;;;;7.35;5.13;;;;;;;14.22;57.81;99915.31;5423358;26;21019;-64
2024/04/10 00:22:19;;;;;;;6.88;4.93;;;;;;;14.20;58.41;99917.34;5423096;26;19991;-64
2024/04/10 00:24:45;;;;;;;7.13;5.53;;;;;;;14.22;58.90;99913.47;5423744;26;20152;-64
2024/04/10 00:27:11;;;;;;;6.35;4.82;;;;;;;14.21;58.77;99911.00;5422128;26;20010;-64
2024/04/10 00:29:37;;;;;;;6.10;5.35;;;;;;;14.20;58.66;99912.84;5421473;26;19996;-64
2024/04/10 00:32:04;;;;;;;8.52;5.00;;;;;;;14.22;58.90;99915.31;5422097;26;19996;-64
2024/04/10 00:34:30;;;;;;;10.52;5.30;;;;;;;14.29;58.46;99917.06;5422367;26;19996;-64
2024/04/10 00:36:56;;;;;;;7.35;5.03;;;;;;;14.34;58.27;99916.53;5423822;26;20586;-64
2024/04/10 00:39:22;;;;;;;9.25;5.28;;;;;;;14.34;58.15;99919.19;5420302;26;20469;-64
2024/04/10 00:41:48;;;;;;;6.20;5.47;;;;;;;14.35;58.74;99908.34;5423837;26;20406;-63
2024/04/10 00:44:14;;;;;;;9.48;5.97;;;;;;;14.32;57.93;99915.88;5422183;26;20000;-64
2024/04/10 00:46:40;;;;;;;8.35;5.70;;;;;;;14.29;57.97;99913.56;5423462;26;20003;-64
2024/04/10 00:49:07;;;;;;;9.25;5.30;;;;;;;14.28;58.77;99914.59;5422160;26;19992;-64
2024/04/10 00:51:33;;;;;;;8.80;5.38;;;;;;;14.31;58.82;99916.88;5423410;26;19991;-64
2024/04/10 00:54:00;;;;;;;9.35;4.93;;;;;;;14.31;58.33;99914.22;5422069;26;20091;-64
2024/04/10 00:56:26;;;;;;;9.02;5.22;;;;;;;14.29;58.86;99916.25;5421708;26;20010;-64
2024/04/10 00:58:54;;;;;;;7.88;4.97;;;;;;;14.26;58.82;99920.09;5420494;26;20207;-64
2024/04/10 01:01:20;;;;;;;7.63;5.22;;;;;;;14.12;59.21;99912.91;5422791;26;20153;-64
2024/04/10 01:03:46;;;;;;;7.28;5.50;;;;;;;14.06;59.36;99914.47;5421504;26;19991;-64
2024/04/10 01:06:12;;;;;;;7.32;5.88;;;;;;;14.01;59.52;99910.69;5421962;26;20190;-64
2024/04/10 01:08:39;;;;;;;7.55;5.18;;;;;;;14.06;59.54;99911.78;5421837;26;19999;-64
2024/04/10 01:11:06;;;;;;;8.57;5.57;;;;;;;14.09;59.77;99910.59;5421527;26;20033;-64
2024/04/10 01:13:33;;;;;;;5.93;5.15;;;;;;;14.02;60.78;99907.00;5423505;26;19988;-64
2024/04/10 01:15:59;;;;;;;8.18;5.57;;;;;;;14.02;61.22;99896.38;5422971;26;19995;-64
2024/04/10 01:18:26;;;;;;;8.95;6.20;;;;;;;14.06;61.00;99900.31;5423013;26;20192;-64
2024/04/10 01:20:52;;;;;;;7.40;5.57;;;;;;;14.00;60.60;99893.88;5420365;26;20004;-64
2024/04/10 01:23:21;;;;;;;8.30;5.57;;;;;;;14.03;61.23;99890.84;5423453;26;20202;-63
2024/04/10 01:25:48;;;;;;;10.15;5.22;;;;;;;14.00;61.45;99885.91;5421542;26;20193;-64
2024/04/10 01:28:14;;;;;;;6.95;5.32;;;;;;;14.07;61.56;99883.34;5422068;26;20202;-64
2024/04/10 01:30:40;;;;;;;11.38;5.80;;;;;;;14.05;61.65;99893.34;5417993;26;20041;-64
2024/04/10 01:33:06;;;;;;;6.78;5.43;;;;;;;14.00;61.15;99891.22;5421681;26;19988;-64
2024/04/10 01:35:32;;;;;;;6.18;4.78;;;;;;;14.01;60.74;99892.03;5421876;26;20004;-64
2024/04/10 01:37:58;;;;;;;7.03;4.88;;;;;;;14.02;61.38;99893.69;5421605;26;20003;-64
2024/04/10 01:40:24;;;;;;;6.38;4.82;;;;;;;13.95;59.36;99898.09;5421050;26;19995;-64
2024/04/10 01:42:50;;;;;;;7.72;4.80;;;;;;;13.88;58.80;99897.16;5421440;26;20015;-65
2024/04/10 01:45:16;;;;;;;7.03;4.78;;;;;;;13.86;58.88;99892.00;5423035;26;19995;-64
2024/04/10 01:47:42;;;;;;;6.78;5.00;;;;;;;13.83;59.12;99899.53;5421557;26;20101;-64
2024/04/10 01:50:09;;;;;;;10.73;5.80;;;;;;;13.84;59.62;99896.69;5420624;26;20003;-64
2024/04/10 01:52:35;;;;;;;8.68;5.60;;;;;;;13.84;59.38;99910.00;5420725;26;20007;-64
2024/04/10 01:55:02;;;;;;;8.95;5.28;;;;;;;13.71;58.57;99913.25;5422837;26;20256;-64
2024/04/10 01:57:28;;;;;;;7.78;5.18;;;;;;;13.60;57.89;99907.53;5419321;26;20003;-65
2024/04/10 01:59:54;;;;;;;7.35;4.93;;;;;;;13.56;58.97;99896.41;5423268;26;20004;-65
2024/04/10 02:02:20;;;;;;;8.10;5.00;;;;;;;13.57;60.07;99902.56;5419228;26;20166;-64
2024/04/10 02:04:46;;;;;;;8.52;5.35;;;;;;;13.59;61.03;99903.22;5422383;26;20467;-64
2024/04/10 02:07:12;;;;;;;7.43;4.75;;;;;;;13.60;59.91;99905.69;5450433;26;20048;-64
2024/04/10 02:09:38;;;;;;;8.57;5.18;;;;;;;13.58;59.86;99901.56;5419767;26;19994;-64
2024/04/10 02:12:05;;;;;;;8.52;4.93;;;;;;;13.53;60.32;99906.56;5420667;26;20035;-64
2024/04/10 02:14:31;;;;;;;9.57;5.90;;;;;;;13.56;61.18;99901.72;5421660;26;20002;-64
2024/04/10 02:16:57;;;;;;;6.57;4.97;;;;;;;13.55;61.37;99900.06;5422169;26;20073;-64
2024/04/10 02:19:24;;;;;;;8.52;5.45;;;;;;;13.54;62.08;99900.25;5421492;26;20057;-64
2024/04/10 02:21:50;;;;;;;8.88;5.63;;;;;;;13.54;62.59;99900.25;5421160;26;19999;-64
2024/04/10 02:24:16;;;;;;;8.75;5.07;;;;;;;13.51;61.99;99896.09;5419739;26;20049;-65
2024/04/10 02:26:42;;;;;;;7.88;4.53;;;;;;;13.48;61.58;99895.59;5419662;26;20102;-64
2024/04/10 02:29:09;;;;;;;8.73;5.10;;;;;;;13.41;60.71;99893.66;5420448;26;19995;-64
2024/04/10 02:31:36;;;;;;;6.20;4.68;;;;;;;13.27;60.88;99885.59;5421652;26;20004;-64
2024/04/10 02:34:02;;;;;;;7.88;5.53;;;;;;;13.23;60.60;99889.63;5420020;26;20015;-64
2024/04/10 02:36:28;;;;;;;6.95;5.53;;;;;;;13.14;62.35;99894.13;5421542;26;20012;-64
2024/04/10 02:38:54;;;;;;;9.05;6.13;;;;;;;13.15;63.01;99901.09;5420933;26;19999;-64
2024/04/10 02:41:20;;;;;;;11.10;6.07;;;;;;;13.17;63.17;99900.97;5421525;26;20023;-64
2024/04/10 02:43:48;;;;;;;10.30;5.93;;;;;;;13.16;63.18;99896.63;5419717;26;19999;-65
2024/04/10 02:46:17;;;;;;;7.95;5.65;;;;;;;13.16;63.38;99902.75;5421297;26;19991;-64
2024/04/10 02:48:46;;;;;;;10.55;6.15;;;;;;;13.10;63.42;99895.47;5420922;26;19996;-64
2024/04/10 02:51:12;;;;;;;9.45;6.10;;;;;;;13.15;63.68;99905.59;5421118;26;19999;-65
2024/04/10 02:53:38;;;;;;;9.77;5.75;;;;;;;13.17;63.28;99907.09;5420730;26;20007;-65
2024/04/10 02:56:04;;;;;;;8.20;5.47;;;;;;;13.13;63.29;99910.25;5419675;26;20176;-64
2024/04/10 02:58:30;;;;;;;8.27;5.55;;;;;;;13.12;63.11;99906.78;5420677;26;20248;-64
2024/04/10 03:00:57;;;;;;;7.28;5.50;;;;;;;13.02;63.43;99906.16;5420765;26;20007;-64
2024/04/10 03:03:25;;;;;;;9.95;5.80;;;;;;;12.87;62.18;99902.56;5420007;26;20003;-64
2024/04/10 03:06:05;;;;;;;8.55;5.32;;;;;;;12.94;60.86;99906.19;5419331;26;20052;-64
2024/04/10 03:08:32;;;;;;;10.05;6.22;;;;;;;12.74;60.60;99908.44;5421418;26;20217;-64
2024/04/10 03:10:58;;;;;;;9.02;5.80;;;;;;;12.54;61.51;99910.66;5420115;26;19991;-64
2024/04/10 03:13:24;;;;;;;7.53;5.55;;;;;;;12.45;62.23;99917.78;5421864;26;19991;-64
2024/04/10 03:15:50;;;;;;;8.57;5.82;;;;;;;12.40;63.33;99904.19;5418519;26;20388;-64
2024/04/10 03:18:17;;;;;;;11.70;6.20;;;;;;;12.33;62.48;99913.84;5420767;26;20235;-65
2024/04/10 03:20:43;;;;;;;9.02;5.63;;;;;;;12.28;63.68;99913.53;5419722;26;20105;-64
2024/04/10 03:23:09;;;;;;;11.43;5.28;;;;;;;12.20;64.73;99918.00;5421373;26;19991;-65
2024/04/10 03:25:36;;;;;;;10.75;5.40;;;;;;;12.22;64.37;99913.38;5420012;26;20003;-64
2024/04/10 03:28:03;;;;;;;11.25;5.40;;;;;;;12.22;64.67;99916.84;5420098;26;20015;-64
2024/04/10 03:30:29;;;;;;;8.20;5.35;;;;;;;12.22;62.30;99914.19;5419733;26;20107;-64
2024/04/10 03:32:55;;;;;;;10.15;5.10;;;;;;;12.16;62.67;99920.19;5420490;26;20069;-65
2024/04/10 03:35:21;;;;;;;9.00;4.88;;;;;;;12.06;61.63;99915.03;5420025;26;19996;-64
2024/04/10 03:37:47;;;;;;;12.90;4.72;;;;;;;12.19;60.72;99919.84;5419546;26;20103;-64
2024/04/10 03:40:13;;;;;;;11.95;5.18;;;;;;;12.22;60.40;99922.16;5420092;26;20010;-65
2024/04/10 03:42:39;;;;;;;9.98;5.00;;;;;;;12.05;60.51;99917.88;5420136;26;20004;-64
2024/04/10 03:45:06;;;;;;;9.75;4.47;;;;;;;12.08;63.57;99928.97;5424545;26;19992;-64
2024/04/10 03:47:32;;;;;;;13.77;5.45;;;;;;;12.12;64.86;99925.00;5423497;26;19995;-64
2024/04/10 03:49:59;;;;;;;8.50;5.60;;;;;;;12.07;65.06;99929.13;5426324;26;20180;-64
2024/04/10 03:52:24;;;;;;;12.55;5.32;;;;;;;12.13;64.82;99926.66;5422745;26;19999;-64
2024/04/10 03:54:50;;;;;;;14.90;5.30;;;;;;;12.02;65.22;99934.94;5426209;26;20148;-63
2024/04/10 03:57:17;;;;;;;25.35;5.97;;;;;;;12.16;64.53;99936.09;5422605;26;19987;-64
2024/04/10 03:59:43;;;;;;;9.32;5.03;;;;;;;12.19;64.60;99942.91;5425458;26;19996;-63
2024/04/10 04:02:09;;;;;;;8.30;4.72;;;;;;;12.33;64.25;99945.69;5424515;26;20016;-64
2024/04/10 04:04:35;;;;;;;10.02;5.05;;;;;;;12.40;63.41;99948.50;5426223;26;19991;-64
2024/04/10 04:07:00;;;;;;;12.68;5.75;;;;;;;12.40;61.57;99956.47;5423416;26;20063;-63
2024/04/10 04:09:26;;;;;;;7.55;4.55;;;;;;;12.30;59.53;99961.13;5424681;26;19996;-63
2024/04/10 04:11:52;;;;;;;12.45;4.97;;;;;;;12.22;60.71;99961.16;5407075;26;19992;-64
2024/04/10 04:14:18;;;;;;;14.05;5.05;;;;;;;12.09;61.46;99972.28;5424041;26;19995;-64
2024/04/10 04:16:44;;;;;;;58.58;10.52;;;;;;;12.02;61.49;99973.94;5424592;26;20209;-64
2024/04/10 04:19:10;;;;;;;110.38;13.07;;;;;;;12.08;62.10;99976.75;5424205;26;19991;-63
2024/04/10 04:21:36;;;;;;;30.67;7.90;;;;;;;12.12;63.70;99985.22;5424686;26;20000;-63
2024/04/10 04:24:03;;;;;;;17.33;6.32;;;;;;;12.14;64.32;99986.69;5424388;26;19998;-64
2024/04/10 04:26:28;;;;;;;11.70;5.72;;;;;;;12.11;64.88;99986.22;5424517;26;20127;-64
2024/04/10 04:28:54;;;;;;;13.48;6.40;;;;;;;12.08;65.06;99979.41;5423458;26;19999;-64
2024/04/10 04:31:20;;;;;;;14.00;7.07;;;;;;;12.14;65.40;99984.06;5425132;26;19998;-63
2024/04/10 04:33:47;;;;;;;16.38;6.80;;;;;;;12.22;65.21;99980.56;5426073;26;20222;-64
2024/04/10 04:36:13;;;;;;;11.20;6.63;;;;;;;12.14;65.25;99991.19;5433069;26;19999;-64
2024/04/10 04:38:39;;;;;;;15.25;6.13;;;;;;;12.07;65.61;99985.72;5424120;26;20007;-64
2024/04/10 04:41:05;;;;;;;13.45;5.95;;;;;;;12.14;65.99;99977.91;5424220;26;20011;-63
2024/04/10 04:43:31;;;;;;;13.05;5.47;;;;;;;12.14;66.18;99972.59;5425119;26;19992;-64
2024/04/10 04:45:57;;;;;;;9.57;5.43;;;;;;;12.02;67.31;99977.41;5424823;26;20106;-64
2024/04/10 04:48:23;;;;;;;15.05;5.95;;;;;;;11.91;68.28;99980.41;5425888;26;19991;-63
2024/04/10 04:50:49;;;;;;;10.60;5.10;;;;;;;11.92;69.22;99981.22;5421698;26;19988;-63
2024/04/10 04:53:16;;;;;;;13.30;5.38;;;;;;;12.01;68.88;99978.41;5405829;26;20115;-64
2024/04/10 04:55:43;;;;;;;10.13;4.72;;;;;;;12.10;68.41;99980.06;5406134;26;19992;-64
2024/04/10 04:58:13;;;;;;;9.55;5.45;;;;;;;12.19;68.53;99982.72;5423620;26;20007;-64
2024/04/10 05:00:40;;;;;;;15.40;6.40;;;;;;;12.17;68.76;99995.34;5423408;26;19995;-64
2024/04/10 05:03:06;;;;;;;12.60;5.05;;;;;;;12.16;69.63;99991.84;5424133;26;20149;-64
2024/04/10 05:05:33;;;;;;;8.13;5.18;;;;;;;12.23;68.94;99998.16;5423136;26;20222;-64
2024/04/10 05:07:59;;;;;;;10.55;4.97;;;;;;;12.22;69.16;99993.84;5423333;26;19987;-65
2024/04/10 05:10:26;;;;;;;15.25;4.93;;;;;;;12.27;69.66;99993.34;5422755;26;20003;-64
2024/04/10 05:12:52;;;;;;;10.88;4.97;;;;;;;12.48;69.55;99998.97;5424707;26;20222;-64
2024/04/10 05:15:18;;;;;;;15.45;5.70;;;;;;;12.96;66.90;99997.22;5421525;26;20214;-64
2024/04/10 05:17:48;;;;;;;15.10;5.65;;;;;;;13.34;65.22;100016.88;5424621;26;20014;-65
2024/04/10 05:20:15;;;;;;;22.35;6.18;;;;;;;13.70;63.76;100017.22;5422561;26;20007;-64
2024/04/10 05:22:42;;;;;;;10.95;4.57;;;;;;;14.03;62.18;100018.66;5425474;26;19987;-64
2024/04/10 05:25:10;;;;;;;8.40;5.00;;;;;;;14.22;61.45;100021.84;5422908;26;20203;-64
2024/04/10 05:27:37;;;;;;;12.40;5.20;;;;;;;14.33;60.72;100019.59;5424252;26;20006;-64
2024/04/10 05:30:09;;;;;;;11.90;5.10;;;;;;;14.52;60.30;100015.63;5423226;26;20022;-64
2024/04/10 05:32:39;;;;;;;18.83;5.53;;;;;;;14.75;59.75;100012.09;5423622;26;20023;-64
2024/04/10 05:35:09;;;;;;;11.25;5.20;;;;;;;14.82;60.29;100016.50;5410587;26;19991;-64
2024/04/10 05:37:35;;;;;;;9.38;5.80;;;;;;;14.83;60.45;100015.50;5422724;26;19999;-64
2024/04/10 05:40:01;;;;;;;21.33;6.30;;;;;;;15.04;59.81;100020.09;5422981;26;20011;-64
2024/04/10 05:42:27;;;;;;;16.25;6.90;;;;;;;15.10;59.72;100015.88;5422938;26;20102;-64
2024/04/10 05:44:53;;;;;;;15.95;6.22;;;;;;;15.37;60.19;100019.72;5423585;26;20033;-64
2024/04/10 05:47:19;;;;;;;6.95;5.00;;;;;;;15.64;57.44;100013.75;5422398;26;19996;-64
2024/04/10 05:49:45;;;;;;;9.18;5.07;;;;;;;15.86;56.17;100015.41;5423008;26;19991;-64
2024/04/10 05:52:11;;;;;;;9.77;5.65;;;;;;;16.11;56.30;100002.50;5421431;26;19995;-64
2024/04/10 05:54:37;;;;;;;9.30;5.03;;;;;;;16.38;55.78;100006.25;5424267;26;19998;-64
2024/04/10 05:57:04;;;;;;;12.68;5.05;;;;;;;16.60;54.50;100001.69;5420917;26;20101;-64
2024/04/10 05:59:30;;;;;;;7.13;5.05;;;;;;;16.84;52.86;100006.63;5424082;26;19991;-64
2024/04/10 06:01:56;;;;;;;8.18;5.63;;;;;;;17.03;52.93;100012.31;5437613;26;20006;-65
2024/04/10 06:04:22;;;;;;;10.82;7.15;;;;;;;17.19;52.57;100010.13;5423710;26;20003;-65
2024/04/10 06:06:48;;;;;;;10.18;8.10;;;;;;;17.36;52.05;100005.25;5421152;26;20370;-65
2024/04/10 06:09:14;;;;;;;9.35;6.45;;;;;;;17.59;52.18;100004.09;5422980;26;20198;-64
2024/04/10 06:11:40;;;;;;;11.90;6.45;;;;;;;17.73;51.71;100012.03;5421688;26;19999;-65
2024/04/10 06:14:06;;;;;;;6.53;5.93;;;;;;;17.77;50.95;99999.91;5422592;26;20011;-64
2024/04/10 06:16:32;;;;;;;7.70;5.63;;;;;;;17.92;50.61;100006.94;5423592;26;19999;-65
2024/04/10 06:18:58;;;;;;;5.43;4.93;;;;;;;18.06;51.14;100005.94;5422554;26;20095;-64
2024/04/10 06:21:23;;;;;;;7.45;6.03;;;;;;;18.25;49.86;100004.28;5421584;26;20192;-65
2024/04/10 06:23:49;;;;;;;6.25;5.28;;;;;;;18.42;49.07;99997.50;5421352;26;20006;-65
2024/04/10 06:26:15;;;;;;;9.73;6.47;;;;;;;18.52;48.91;99998.72;5422226;26;20007;-64
2024/04/10 06:28:41;;;;;;;8.48;6.32;;;;;;;18.64;48.50;100001.63;5422500;26;20385;-64
2024/04/10 06:31:09;;;;;;;10.45;6.30;;;;;;;18.87;48.48;100011.13;5423345;26;19996;-65
2024/04/10 06:33:35;;;;;;;8.75;5.88;;;;;;;19.16;48.05;100013.31;5420832;26;20064;-64
2024/04/10 06:36:04;;;;;;;9.75;6.25;;;;;;;19.43;46.80;100020.25;5423299;26;20157;-64
2024/04/10 06:38:31;;;;;;;8.43;6.60;;;;;;;19.53;46.66;100021.69;5421451;26;20129;-64
2024/04/10 06:40:59;;;;;;;9.80;5.63;;;;;;;19.77;46.43;100020.97;5423082;26;20002;-64
2024/04/10 06:43:26;;;;;;;9.70;6.22;;;;;;;19.85;45.38;100026.09;5421685;26;20056;-64
2024/04/10 06:45:56;;;;;;;7.38;5.80;;;;;;;19.85;45.05;100022.59;5422048;26;20526;-64
2024/04/10 06:48:22;;;;;;;7.50;5.97;;;;;;;19.90;44.57;100022.75;5421790;26;20404;-63
2024/04/10 06:50:48;;;;;;;7.13;5.75;;;;;;;19.98;44.75;100022.50;5422576;26;20134;-64
2024/04/10 06:53:15;;;;;;;7.30;5.80;;;;;;;20.16;44.81;100029.81;5421053;26;19998;-64
2024/04/10 06:55:41;;;;;;;28.80;8.23;;;;;;;20.41;44.58;100017.25;5421263;26;19991;-64
2024/04/10 06:58:07;;;;;;;8.27;5.97;;;;;;;20.60;43.09;100018.94;5421829;26;19999;-64
2024/04/10 07:00:33;;;;;;;9.90;6.03;;;;;;;20.75;43.04;100021.31;5421666;26;19991;-64
2024/04/10 07:02:59;;;;;;;6.70;5.38;;;;;;;20.76;42.88;100019.44;5421977;26;20469;-64
2024/04/10 07:05:25;;;;;;;8.73;5.75;;;;;;;20.82;42.01;100021.28;5420879;26;20007;-64
2024/04/10 07:07:51;;;;;;;7.95;5.03;;;;;;;21.01;41.76;100015.69;5421678;26;19995;-64
2024/04/10 07:10:17;;;;;;;9.77;5.40;;;;;;;21.15;41.32;100021.75;5421218;26;19996;-62
2024/04/10 07:12:43;;;;;;;7.55;5.07;;;;;;;21.29;40.95;100020.59;5421411;26;19991;-62
2024/04/10 07:15:09;;;;;;;9.35;5.20;;;;;;;21.62;40.95;100014.78;5419759;26;19992;-63
2024/04/10 07:17:34;;;;;;;7.43;5.10;;;;;;;21.86;39.95;100025.69;5423581;26;19991;-62
2024/04/10 07:20:00;;;;;;;10.48;5.25;;;;;;;21.99;39.63;100022.81;5424383;26;20471;-62
2024/04/10 07:22:26;;;;;;;4.75;4.05;;;;;;;22.01;38.25;100020.69;5425418;26;20002;-62
2024/04/10 07:24:52;;;;;;;4.85;4.22;;;;;;;22.06;37.63;100020.03;5424455;26;19996;-62
2024/04/10 07:27:18;;;;;;;5.65;4.13;;;;;;;22.00;38.72;100021.75;5424792;26;20210;-62
2024/04/10 07:29:45;;;;;;;6.03;4.47;;;;;;;22.06;37.60;100020.03;5425395;26;20003;-62
2024/04/10 07:32:11;;;;;;;8.27;4.45;;;;;;;22.19;38.47;100020.66;5422803;26;20008;-62
2024/04/10 07:34:37;;;;;;;6.72;4.18;;;;;;;22.26;37.92;100025.94;5424368;26;19996;-62
2024/04/10 07:37:03;;;;;;;6.03;4.25;;;;;;;22.40;38.67;100024.69;5424200;26;19995;-62
2024/04/10 07:39:29;;;;;;;9.82;4.38;;;;;;;22.56;38.48;100020.47;5425229;26;20467;-63
2024/04/10 07:41:55;;;;;;;4.78;3.97;;;;;;;22.76;37.44;100020.13;5424484;26;19998;-63
2024/04/10 07:44:21;;;;;;;5.82;4.50;;;;;;;22.74;37.58;100012.28;5425526;26;20253;-62
2024/04/10 07:46:47;;;;;;;6.20;4.40;;;;;;;22.79;36.82;100022.38;5423159;26;19992;-63
2024/04/10 07:49:15;;;;;;;7.60;4.03;;;;;;;22.90;36.49;100019.72;5426533;26;20078;-63
2024/04/10 07:51:41;;;;;;;6.15;4.05;;;;;;;22.89;35.90;100014.56;5422823;26;20255;-63
2024/04/10 07:54:07;;;;;;;5.88;4.03;;;;;;;22.74;36.40;100012.28;5426141;26;20114;-63
2024/04/10 07:56:32;;;;;;;6.43;4.28;;;;;;;22.56;35.49;100010.50;5425249;26;19995;-62
2024/04/10 07:58:58;;;;;;;6.65;4.28;;;;;;;22.60;35.52;100002.75;5425358;26;20224;-63
2024/04/10 08:01:24;;;;;;;6.97;4.68;;;;;;;22.75;35.47;100003.13;5424353;26;20202;-63
2024/04/10 08:03:51;;;;;;;6.13;3.60;;;;;;;22.96;36.52;99998.22;5425636;26;19995;-62
2024/04/10 08:06:17;;;;;;;5.90;3.90;;;;;;;23.02;34.58;99994.59;5425115;26;19995;-62
2024/04/10 08:08:43;;;;;;;12.73;4.75;;;;;;;23.03;35.04;99999.75;5422946;26;19996;-62
2024/04/10 08:11:18;;;;;;;4.90;3.63;;;;;;;23.06;35.12;99996.56;5424649;26;20003;-63
2024/04/10 08:13:44;;;;;;;6.72;3.20;;;;;;;23.33;34.58;99993.34;5423396;26;19996;-62
2024/04/10 08:16:15;;;;;;;7.03;3.30;;;;;;;23.41;34.15;100001.06;5425535;26;20024;-62
2024/04/10 08:18:43;;;;;;;6.55;3.40;;;;;;;23.46;33.23;99995.78;5423635;26;20181;-63
2024/04/10 08:21:14;;;;;;;5.80;4.07;;;;;;;23.55;33.60;99997.88;5424677;26;19992;-63
2024/04/10 08:23:42;;;;;;;6.70;3.40;;;;;;;23.54;34.48;99995.38;5424012;26;19996;-62
2024/04/10 08:26:16;;;;;;;6.78;3.88;;;;;;;23.60;34.39;99991.75;5424254;26;19991;-62
2024/04/10 08:28:50;;;;;;;4.65;3.60;;;;;;;23.66;32.87;99990.78;5422332;26;19996;-62
2024/04/10 08:31:18;;;;;;;11.25;4.00;;;;;;;23.56;32.99;99986.00;5422507;26;19996;-62
2024/04/10 08:33:47;;;;;;;6.68;4.03;;;;;;;23.34;33.59;99982.28;5421188;26;20053;-62
2024/04/10 08:36:14;;;;;;;6.53;4.18;;;;;;;22.85;34.02;99978.25;5421466;26;20004;-62
2024/04/10 08:38:41;;;;;;;6.10;3.65;;;;;;;22.82;34.03;99978.72;5421457;26;20015;-63
2024/04/10 08:41:19;;;;;;;7.38;3.70;;;;;;;23.15;34.18;99986.22;5421412;26;20271;-62
2024/04/10 08:43:47;;;;;;;5.28;3.50;;;;;;;23.03;33.89;99991.66;5422129;26;20147;-62
2024/04/10 08:46:14;;;;;;;6.43;3.67;;;;;;;23.13;33.46;99982.94;5421302;26;20049;-62
2024/04/10 08:48:45;;;;;;;4.78;3.00;;;;;;;23.16;33.85;99974.34;5421922;26;20004;-62
2024/04/10 08:51:12;;;;;;;4.65;3.35;;;;;;;23.35;35.14;99975.84;5421213;26;19992;-63
2024/04/10 08:53:43;;;;;;;6.18;3.33;;;;;;;23.42;32.72;99975.69;5421776;26;19995;-62
2024/04/10 08:56:16;;;;;;;5.25;3.30;;;;;;;23.59;34.35;99979.31;5420786;26;19999;-63
2024/04/10 08:58:46;;;;;;;3.47;3.17;;;;;;;23.66;33.84;99979.16;5420021;26;20003;-63
2024/04/10 09:01:27;;;;;;;4.15;2.80;;;;;;;23.72;31.69;99978.19;5418543;26;20006;-62
2024/04/10 09:03:54;;;;;;;6.55;3.30;;;;;;;23.48;32.40;99980.94;5421750;26;20352;-63
2024/04/10 09:06:20;;;;;;;4.75;3.17;;;;;;;23.55;34.20;99978.13;5420625;26;20007;-62
2024/04/10 09:08:57;;;;;;;5.72;2.97;;;;;;;23.73;33.40;99980.66;5422990;26;19999;-62
2024/04/10 09:11:23;;;;;;;6.45;3.03;;;;;;;23.80;33.49;99975.91;5424714;26;20006;-63
2024/04/10 09:14:02;;;;;;;5.45;3.42;;;;;;;23.92;33.03;99973.16;5425694;26;20105;-62
2024/04/10 09:16:29;;;;;;;4.20;2.97;;;;;;;23.97;31.72;99969.75;5423038;26;20019;-63
2024/04/10 09:18:55;;;;;;;6.10;2.97;;;;;;;23.92;33.35;99964.22;5423590;26;19991;-62
2024/04/10 09:21:21;;;;;;;4.25;3.05;;;;;;;23.95;32.34;99966.47;5423508;26;19995;-62
2024/04/10 09:23:47;;;;;;;5.88;3.00;;;;;;;23.98;32.84;99965.97;5422094;26;20002;-63
2024/04/10 09:26:17;;;;;;;6.72;3.13;;;;;;;24.00;32.31;99966.53;5423315;26;19998;-63
2024/04/10 09:28:43;;;;;;;3.42;2.25;;;;;;;24.03;31.43;99957.94;5421173;26;19991;-63
2024/04/10 09:31:20;;;;;;;3.35;2.92;;;;;;;23.71;31.82;99952.22;5424824;26;19995;-62
2024/04/10 09:33:49;;;;;;;6.22;2.65;;;;;;;23.58;32.73;99957.91;5422413;26;19991;-63
2024/04/10 09:36:16;;;;;;;5.32;2.67;;;;;;;23.52;33.52;99955.09;5421268;26;20162;-63
2024/04/10 09:38:42;;;;;;;2.55;2.30;;;;;;;23.19;32.64;99953.09;5423256;26;19999;-63
2024/04/10 09:41:11;;;;;;;4.90;3.00;;;;;;;22.90;33.38;99946.00;5420378;26;19988;-63
2024/04/10 09:43:42;;;;;;;3.80;2.88;;;;;;;23.03;34.52;99951.13;5425372;26;20222;-63
2024/04/10 09:46:08;;;;;;;6.57;3.33;;;;;;;23.17;34.09;99946.28;5421660;26;20371;-63
2024/04/10 09:48:35;;;;;;;6.30;3.13;;;;;;;23.26;34.56;99947.56;5425277;26;20000;-62
2024/04/10 09:51:04;;;;;;;7.38;3.00;;;;;;;23.29;35.12;99943.53;5422722;26;20003;-63
2024/04/10 09:53:33;;;;;;;5.93;3.03;;;;;;;23.31;34.76;99941.44;5422499;26;19998;-63
2024/04/10 09:56:00;;;;;;;4.53;2.92;;;;;;;23.34;34.58;99932.84;5423424;26;19998;-63
2024/04/10 09:58:27;;;;;;;5.55;3.05;;;;;;;23.34;33.57;99938.25;5421845;26;20006;-62
2024/04/10 10:00:53;;;;;;;4.13;2.65;;;;;;;23.30;33.69;99932.50;5422923;26;19995;-62
2024/04/10 10:03:26;;;;;;;3.90;2.50;;;;;;;23.28;33.98;99931.09;5422336;26;19991;-63
2024/04/10 10:06:06;;;;;;;9.52;2.72;;;;;;;23.31;34.89;99923.34;5425680;26;20002;-63
2024/04/10 10:08:36;;;;;;;4.72;2.50;;;;;;;23.39;34.19;99924.84;5420984;26;19999;-62
2024/04/10 10:11:05;;;;;;;4.72;2.58;;;;;;;23.40;33.66;99912.97;5423462;26;20157;-62
2024/04/10 10:13:40;;;;;;;8.10;2.90;;;;;;;23.38;34.43;99915.91;5424706;26;20035;-62
2024/04/10 10:16:06;;;;;;;5.40;2.20;;;;;;;23.40;35.57;99910.25;5424216;26;20022;-62
2024/04/10 10:18:32;;;;;;;44.88;6.88;;;;;;;23.44;33.07;99912.22;5423542;26;20003;-62
2024/04/10 10:21:04;;;;;;;3.10;2.50;;;;;;;23.38;33.03;99907.78;5423217;26;20094;-63
2024/04/10 10:23:31;;;;;;;4.43;2.33;;;;;;;23.45;34.30;99905.75;5424093;26;20285;-62
2024/04/10 10:25:57;;;;;;;3.85;2.70;;;;;;;23.45;33.84;99900.38;5423187;26;20480;-62
2024/04/10 10:28:23;;;;;;;3.83;2.72;;;;;;;23.53;33.89;99902.66;5423036;26;20079;-62
2024/04/10 10:30:50;;;;;;;3.45;2.10;;;;;;;23.64;32.76;99901.00;5424430;26;19998;-63
2024/04/10 10:33:22;;;;;;;3.13;2.20;;;;;;;23.64;31.41;99900.19;5424635;26;20203;-63
2024/04/10 10:35:48;;;;;;;4.07;2.42;;;;;;;23.52;32.94;99905.63;5425450;26;20014;-62
2024/04/10 10:38:16;;;;;;;3.25;2.70;;;;;;;23.39;31.92;99897.81;5422713;26;20007;-63
2024/04/10 10:40:42;;;;;;;4.88;2.53;;;;;;;23.43;32.42;99897.09;5421647;26;20213;-62
2024/04/10 10:43:10;;;;;;;3.40;2.58;;;;;;;23.43;32.74;99899.78;5421698;26;19995;-62
2024/04/10 10:45:36;;;;;;;4.57;2.20;;;;;;;23.40;31.92;99900.28;5423836;26;20006;-62
2024/04/10 10:48:04;;;;;;;3.25;2.45;;;;;;;23.32;31.73;99895.25;5424869;26;20003;-63
2024/04/10 10:50:30;;;;;;;3.90;2.55;;;;;;;23.22;32.31;99897.75;5420598;26;20416;-62
2024/04/10 10:52:57;;;;;;;3.58;2.30;;;;;;;23.15;31.90;99888.97;5424572;26;20002;-62
2024/04/10 10:55:24;;;;;;;4.53;2.25;;;;;;;23.03;31.51;99889.03;5422668;26;19999;-62
2024/04/10 10:58:04;;;;;;;3.55;2.15;;;;;;;23.08;31.32;99888.31;5423691;26;20010;-63
2024/04/10 11:00:31;;;;;;;2.95;1.60;;;;;;;23.21;30.84;99883.44;5423829;26;20000;-63
2024/04/10 11:03:07;;;;;;;2.50;2.30;;;;;;;23.28;31.22;99879.75;5422730;26;20011;-62
2024/04/10 11:05:34;;;;;;;6.82;1.85;;;;;;;23.22;29.78;99887.78;5421241;26;20007;-62
2024/04/10 11:08:00;;;;;;;3.67;2.05;;;;;;;23.24;30.34;99882.13;5423190;26;20015;-62
2024/04/10 11:10:30;;;;;;;2.53;1.88;;;;;;;23.24;30.43;99876.72;5422900;26;19992;-63
2024/04/10 11:13:02;;;;;;;2.97;1.58;;;;;;;23.17;29.78;99879.56;5423070;26;20222;-63
2024/04/10 11:15:29;;;;;;;5.43;2.15;;;;;;;23.20;29.67;99871.00;5421824;26;19987;-62
2024/04/10 11:18:05;;;;;;;3.35;2.28;;;;;;;23.19;30.00;99871.22;5424524;26;19992;-63
2024/04/10 11:20:32;;;;;;;1.52;1.27;;;;;;;23.31;30.08;99882.81;5422595;26;19999;-63
2024/04/10 11:23:07;;;;;;;2.13;1.92;;;;;;;23.36;30.10;99873.97;5421734;26;20222;-63
2024/04/10 11:25:35;;;;;;;1.88;1.77;;;;;;;23.39;29.72;99873.50;5451813;26;20515;-62
2024/04/10 11:28:01;;;;;;;3.90;1.95;;;;;;;23.40;31.25;99881.34;5422234;26;20002;-62